Airfield :
LOGIN :

Register | Disclaimer

   EN    FR    IT 

 










Legend :    VFR   Marginal VFR   IFR   Intensive IFR   Very Intensive IFR
Visi :
Ceiling :
>= 8 km
>= 3000ft
5 to 8 km
1000 to 3000 ft
1500m to 5 km
500 to 1000 ft
800 to 1500m
200 to 500 ft
< 800m
< 200 ft
Symbols :   Thunderstorms  Fog  Heavy snow  Heavy precipitations  Wind > 20 kt
SIGMETs :     Misc.  Thunderstorms  Icing  Turbulence  Mountain Waves  Volcanic Ashes






- Airport Elevation : 2026 ft
- IATA code : TOJ


LETO - Madrid Torrejon

CURRENT METAR :
  • 171900Z 30006KT CAVOK 23/04 Q1017 NOSIG

EXPIRED METARs :
  • 171830Z 28004KT 250V330 CAVOK 24/03 Q1017 NOSIG
  • 171800Z 28007KT 240V310 CAVOK 25/02 Q1017 NOSIG
  • 171730Z 28008KT 250V310 CAVOK 25/02 Q1017 NOSIG
  • 171700Z 27006KT 210V320 CAVOK 26/M00 Q1017 NOSIG
  • 171630Z 23005KT CAVOK 25/M02 Q1017 NOSIG

TAF TAF LETO
Valid from the 17 at 18:00 until the 18 at 18:00 UTC


171700Z 1718/1818 VRB04KT CAVOK TX28/1815Z TN09/1805Z
BECMG 1810/1812 23010KT
PROB30
TEMPO 1815/1818 26015G25KT



MET'MAP, your aeronautical weather chart ! - Copyright ORBIFLY December 2007 - Disclaimer

ORBIFLY MET'MAP TEAM :

Programming & Development : Alexandra Zaïnal
Concept & original design : Baudouin d'Aumeries
Assistance for programming : Marc-Olivier Méhu
Technical & hardware support : Manuel Goepfert

Contact : metmap@orbifly.com




SOURCES & CREDITS :

   NOAA